Time;durP1;ratioP1;P1;durP2;ratioP2;P2;SDS_P1;SDS_P2;PMS_P1;PMS_P2;Temp;Humidity;BMP_temperature;BMP_pressure;BME280_temperature;BME280_humidity;BME280_pressure;Samples;Min_cycle;Max_cycle;Signal;HPM_P1;HPM_P2
2021/10/13 00:01:51;;;;;;;7.50;5.05;;;;;;;9.09;62.18;99688.34;4393598;32;34328;-85
2021/10/13 00:04:19;;;;;;;9.32;5.47;;;;;;;9.11;61.85;99688.25;4404881;32;33642;-85
2021/10/13 00:06:47;;;;;;;9.40;5.50;;;;;;;9.05;61.98;99683.25;4402936;32;32332;-85
2021/10/13 00:09:15;;;;;;;9.82;5.28;;;;;;;9.02;62.39;99686.88;4361532;32;33200;-85
2021/10/13 00:11:43;;;;;;;8.10;5.03;;;;;;;8.97;62.42;99684.41;4410395;32;34537;-85
2021/10/13 00:14:11;;;;;;;7.95;4.82;;;;;;;8.91;62.43;99687.25;4387047;32;33991;-86
2021/10/13 00:16:39;;;;;;;12.15;5.78;;;;;;;9.03;62.16;99680.69;4389450;32;31762;-86
2021/10/13 00:19:06;;;;;;;8.93;5.22;;;;;;;8.82;63.23;99671.81;4403744;32;32884;-86
2021/10/13 00:21:34;;;;;;;11.25;5.22;;;;;;;9.13;62.26;99671.50;4401075;32;33654;-86
2021/10/13 00:24:02;;;;;;;8.15;4.95;;;;;;;9.19;61.92;99675.66;4405089;32;32941;-86
2021/10/13 00:26:29;;;;;;;9.55;5.15;;;;;;;9.27;61.76;99678.00;4388961;32;33932;-85
2021/10/13 00:28:57;;;;;;;9.60;5.65;;;;;;;9.30;61.67;99673.44;4388473;32;33888;-88
2021/10/13 00:31:25;;;;;;;9.80;5.95;;;;;;;9.30;61.54;99668.16;4397144;32;33922;-87
2021/10/13 00:33:53;;;;;;;9.10;5.47;;;;;;;9.26;61.71;99671.88;4403769;32;32978;-86
2021/10/13 00:36:20;;;;;;;9.40;5.87;;;;;;;9.26;61.64;99671.88;4380860;32;32032;-86
2021/10/13 00:38:48;;;;;;;14.05;6.78;;;;;;;9.18;61.81;99669.53;4385921;32;32676;-86
2021/10/13 00:41:16;;;;;;;12.05;6.53;;;;;;;9.23;61.78;99672.84;4377471;32;33066;-84
2021/10/13 00:43:43;;;;;;;12.95;6.32;;;;;;;9.30;61.53;99668.16;4383288;32;33759;-85
2021/10/13 00:46:11;;;;;;;10.63;5.80;;;;;;;9.20;61.60;99667.69;4386544;32;32937;-84
2021/10/13 00:48:39;;;;;;;14.13;6.62;;;;;;;9.00;62.19;99658.87;4403600;32;33877;-84
2021/10/13 00:51:08;;;;;;;8.80;5.78;;;;;;;9.15;61.47;99655.63;4387088;32;33548;-84
2021/10/13 00:53:35;;;;;;;13.98;7.18;;;;;;;9.06;61.79;99653.34;4394773;32;32898;-84
2021/10/13 00:56:24;;;;;;;9.10;6.12;;;;;;;8.92;62.08;99652.13;4389869;32;33398;-84
2021/10/13 00:58:51;;;;;;;10.70;6.28;;;;;;;9.02;62.17;99651.75;4402877;32;33097;-84
2021/10/13 01:01:22;;;;;;;14.90;6.22;;;;;;;8.98;62.70;99646.62;4398838;32;33809;-85
2021/10/13 01:03:59;;;;;;;13.75;7.50;;;;;;;8.80;63.66;99647.34;4401499;32;32550;-84
2021/10/13 01:06:36;;;;;;;12.82;7.20;;;;;;;8.72;64.50;99646.78;4395614;32;33322;-84
2021/10/13 01:09:16;;;;;;;11.80;7.22;;;;;;;8.70;64.46;99641.56;4399003;32;33605;-84
2021/10/13 01:12:11;;;;;;;9.75;6.82;;;;;;;8.86;64.04;99639.19;4392129;32;34181;-85
2021/10/13 01:15:07;;;;;;;11.65;7.25;;;;;;;9.01;63.50;99640.34;4405741;32;33057;-84
2021/10/13 01:17:43;;;;;;;9.07;6.82;;;;;;;8.96;63.51;99632.66;4399626;32;34858;-85
2021/10/13 01:20:43;;;;;;;9.93;6.82;;;;;;;8.84;63.64;99638.41;4391150;32;34589;-85
2021/10/13 01:23:40;;;;;;;10.75;6.62;;;;;;;9.00;63.40;99645.69;4378840;32;32599;-85
2021/10/13 01:26:21;;;;;;;9.75;6.85;;;;;;;8.88;63.47;99645.28;4413668;32;32159;-85
2021/10/13 01:28:50;;;;;;;12.43;7.37;;;;;;;8.77;63.48;99646.59;4397113;32;32534;-85
2021/10/13 01:31:27;;;;;;;10.43;5.95;;;;;;;8.51;64.10;99651.09;4385210;32;34602;-86
2021/10/13 01:34:06;;;;;;;13.05;6.40;;;;;;;8.61;64.04;99649.81;4385161;32;33920;-88
2021/10/13 01:36:44;;;;;;;12.27;6.70;;;;;;;8.82;63.50;99645.50;4385637;32;33699;-88
2021/10/13 01:39:12;;;;;;;11.45;6.60;;;;;;;8.62;64.08;99648.03;4385377;32;31976;-88
2021/10/13 01:41:43;;;;;;;9.70;6.22;;;;;;;8.72;63.61;99650.25;4406260;32;33946;-85
2021/10/13 01:44:13;;;;;;;10.40;6.32;;;;;;;8.78;63.31;99643.03;4396927;32;33088;-85
2021/10/13 01:46:44;;;;;;;9.45;6.10;;;;;;;8.89;62.93;99644.34;4386804;32;33034;-85
2021/10/13 01:49:13;;;;;;;11.18;6.43;;;;;;;8.56;63.56;99648.28;4404065;32;32326;-85
2021/10/13 01:51:42;;;;;;;8.98;6.45;;;;;;;8.70;63.56;99656.50;4413039;32;33536;-86
2021/10/13 01:54:11;;;;;;;12.15;6.40;;;;;;;8.74;63.58;99658.13;4406020;32;34401;-86
2021/10/13 01:56:40;;;;;;;13.48;6.78;;;;;;;8.84;63.10;99659.47;4411136;32;33346;-85
2021/10/13 01:59:10;;;;;;;13.07;6.22;;;;;;;8.79;63.19;99661.44;4413274;32;31401;-84
2021/10/13 02:01:42;;;;;;;10.35;6.28;;;;;;;8.70;63.51;99656.50;4396257;32;34080;-84
2021/10/13 02:04:12;;;;;;;12.77;6.75;;;;;;;8.62;64.33;99661.22;4404640;32;33888;-83
2021/10/13 02:06:41;;;;;;;15.93;7.20;;;;;;;8.69;64.41;99653.03;4411829;32;33461;-84
2021/10/13 02:09:10;;;;;;;9.10;6.12;;;;;;;8.85;63.82;99645.38;4400132;32;33339;-84
2021/10/13 02:11:39;;;;;;;9.40;6.03;;;;;;;8.61;64.30;99655.09;4380888;32;34602;-84
2021/10/13 02:14:10;;;;;;;13.60;7.00;;;;;;;8.64;64.26;99659.34;4392048;32;33053;-83
2021/10/13 02:16:40;;;;;;;10.18;6.18;;;;;;;8.66;64.10;99657.53;4396419;32;34420;-83
2021/10/13 02:19:12;;;;;;;10.55;6.20;;;;;;;8.83;63.49;99655.12;4386293;32;33372;-84
2021/10/13 02:21:41;;;;;;;9.27;6.20;;;;;;;8.85;63.54;99657.69;4401893;32;33505;-84
2021/10/13 02:24:10;;;;;;;10.63;6.90;;;;;;;8.75;63.63;99659.81;4418216;32;33149;-83
2021/10/13 02:26:42;;;;;;;10.25;6.15;;;;;;;8.68;64.07;99658.34;4405402;32;32568;-83
2021/10/13 02:29:15;;;;;;;16.75;7.57;;;;;;;8.77;63.62;99657.97;4373164;32;32434;-85
2021/10/13 02:31:44;;;;;;;9.85;6.25;;;;;;;8.83;63.32;99659.50;4392256;32;33830;-85
2021/10/13 02:34:13;;;;;;;13.50;7.05;;;;;;;8.87;63.11;99669.88;4396311;32;34351;-85
2021/10/13 02:36:41;;;;;;;9.50;5.87;;;;;;;8.82;63.13;99660.44;4391880;32;36007;-85
2021/10/13 02:39:09;;;;;;;15.43;7.05;;;;;;;8.94;62.57;99663.47;4399438;32;33398;-85
2021/10/13 02:41:37;;;;;;;12.10;6.43;;;;;;;8.74;63.22;99670.44;4382311;32;32594;-85
2021/10/13 02:44:07;;;;;;;10.73;6.30;;;;;;;8.58;63.88;99662.22;4399216;32;34042;-86
2021/10/13 02:46:46;;;;;;;10.73;5.90;;;;;;;8.55;63.99;99668.50;4398472;32;33822;-85
2021/10/13 02:49:51;;;;;;;9.55;5.45;;;;;;;8.65;63.49;99669.00;4403402;32;33482;-86
2021/10/13 02:52:38;;;;;;;12.13;6.85;;;;;;;8.70;63.20;99672.31;4388061;32;32675;-85
2021/10/13 02:55:21;;;;;;;9.77;5.82;;;;;;;8.56;63.89;99675.47;4391209;32;33921;-86
2021/10/13 02:58:06;;;;;;;10.35;6.80;;;;;;;8.55;63.95;99672.91;4398628;32;34743;-86
2021/10/13 03:00:35;;;;;;;12.05;7.03;;;;;;;8.56;63.97;99674.59;4366901;32;32319;-86
2021/10/13 03:03:08;;;;;;;12.57;6.57;;;;;;;8.49;64.03;99683.63;4391022;32;33078;-86
2021/10/13 03:05:37;;;;;;;12.88;7.68;;;;;;;8.51;64.05;99685.31;4403550;32;33415;-85
2021/10/13 03:08:09;;;;;;;13.62;7.05;;;;;;;8.63;63.92;99681.34;4391431;32;33626;-86
2021/10/13 03:10:38;;;;;;;10.70;5.65;;;;;;;8.63;64.07;99686.59;4399110;32;34144;-85
2021/10/13 03:13:06;;;;;;;10.85;6.95;;;;;;;8.70;64.05;99688.97;4396307;32;33230;-86
2021/10/13 03:15:34;;;;;;;9.77;6.68;;;;;;;8.64;64.79;99698.84;4385445;32;34350;-85
2021/10/13 03:18:03;;;;;;;20.42;9.43;;;;;;;8.72;66.37;99696.78;4397859;32;33094;-84
2021/10/13 03:20:31;;;;;;;18.60;8.82;;;;;;;8.84;67.06;99700.75;4403639;32;32409;-84
2021/10/13 03:23:00;;;;;;;12.88;6.80;;;;;;;9.09;66.65;99695.38;4399946;32;33555;-84
2021/10/13 03:25:30;;;;;;;13.80;7.82;;;;;;;9.07;66.61;99698.09;4405520;32;33569;-84
2021/10/13 03:27:59;;;;;;;13.68;7.65;;;;;;;9.05;66.47;99704.31;4392749;32;34325;-84
2021/10/13 03:30:28;;;;;;;18.27;8.05;;;;;;;9.21;65.91;99711.56;4404400;32;33124;-85
2021/10/13 03:32:56;;;;;;;18.27;7.47;;;;;;;9.15;66.33;99703.03;4396448;32;34000;-85
2021/10/13 03:35:32;;;;;;;13.05;7.93;;;;;;;9.08;66.71;99710.31;4372479;32;33934;-85
2021/10/13 03:38:01;;;;;;;14.85;8.93;;;;;;;9.30;66.52;99704.19;4399825;32;33587;-84
2021/10/13 03:40:31;;;;;;;16.73;7.65;;;;;;;9.34;66.43;99701.38;4395994;32;32031;-84
2021/10/13 03:42:59;;;;;;;18.45;7.78;;;;;;;9.41;67.00;99702.88;4400032;32;34688;-84
2021/10/13 03:45:27;;;;;;;22.77;9.07;;;;;;;9.28;67.53;99696.37;4403592;32;34289;-84
2021/10/13 03:47:55;;;;;;;18.17;9.13;;;;;;;9.41;67.31;99702.00;4398438;32;34230;-84
2021/10/13 03:50:23;;;;;;;19.33;9.48;;;;;;;9.59;66.97;99698.63;4399940;32;33466;-87
2021/10/13 03:52:51;;;;;;;18.17;8.65;;;;;;;9.63;67.42;99701.97;4399069;32;33457;-86
2021/10/13 03:55:20;;;;;;;15.27;8.10;;;;;;;9.84;66.76;99701.09;4397850;32;33952;-86
2021/10/13 03:57:48;;;;;;;17.60;9.15;;;;;;;10.26;65.49;99697.56;4402195;32;33167;-85
2021/10/13 04:00:19;;;;;;;15.65;9.52;;;;;;;10.05;66.29;99699.31;4384083;32;33517;-85
2021/10/13 04:02:48;;;;;;;22.35;10.55;;;;;;;9.86;67.17;99704.50;4372271;32;33547;-86
2021/10/13 04:05:16;;;;;;;17.25;8.20;;;;;;;10.00;66.85;99693.38;4397235;32;34335;-86
2021/10/13 04:07:43;;;;;;;16.40;8.80;;;;;;;10.07;66.75;99704.53;4385968;32;33852;-86
2021/10/13 04:10:14;;;;;;;18.12;8.77;;;;;;;10.10;66.91;99701.75;4378178;32;33088;-86
2021/10/13 04:12:42;;;;;;;15.15;7.95;;;;;;;9.98;67.63;99708.41;4389020;32;32410;-87
2021/10/13 04:15:11;;;;;;;15.25;7.80;;;;;;;10.39;66.46;99709.28;4396803;32;32963;-86
2021/10/13 04:17:39;;;;;;;15.63;8.40;;;;;;;10.29;66.89;99712.37;4383972;32;32448;-86
2021/10/13 04:20:09;;;;;;;14.50;8.50;;;;;;;10.39;66.67;99711.91;4374113;32;33232;-86
2021/10/13 04:22:37;;;;;;;14.05;8.38;;;;;;;10.33;67.07;99709.53;4398223;32;33459;-86
2021/10/13 04:25:06;;;;;;;16.87;9.75;;;;;;;10.32;67.22;99702.56;4358892;32;33242;-86
2021/10/13 04:27:34;;;;;;;17.27;8.88;;;;;;;10.23;67.50;99710.84;4384375;32;33554;-85
2021/10/13 04:30:04;;;;;;;16.40;8.57;;;;;;;10.18;67.63;99710.19;4373355;32;33049;-86
2021/10/13 04:32:32;;;;;;;16.95;9.05;;;;;;;10.57;66.60;99714.66;4386979;32;32773;-86
2021/10/13 04:35:00;;;;;;;14.10;7.65;;;;;;;10.73;65.82;99718.34;4374004;32;32896;-85
2021/10/13 04:37:28;;;;;;;12.23;7.82;;;;;;;10.66;66.15;99722.16;4387738;32;34707;-86
2021/10/13 04:39:56;;;;;;;12.27;7.65;;;;;;;10.67;66.26;99721.25;4361610;32;32815;-85
2021/10/13 04:42:23;;;;;;;11.48;7.80;;;;;;;10.65;66.30;99723.09;4370141;32;33807;-85
2021/10/13 04:44:51;;;;;;;13.27;7.43;;;;;;;10.68;66.45;99730.88;4385313;32;33472;-85
2021/10/13 04:47:19;;;;;;;14.07;7.95;;;;;;;10.60;66.91;99725.09;4371420;32;32629;-85
2021/10/13 04:49:46;;;;;;;11.60;7.10;;;;;;;10.36;67.83;99722.62;4394095;32;33410;-87
2021/10/13 04:52:14;;;;;;;12.70;7.25;;;;;;;10.59;67.58;99726.87;4355932;32;32832;-86
2021/10/13 04:54:42;;;;;;;11.48;7.18;;;;;;;10.73;67.26;99728.91;4379872;32;34402;-85
2021/10/13 04:57:10;;;;;;;14.38;7.28;;;;;;;10.71;67.24;99726.31;4370807;32;32696;-86
2021/10/13 04:59:37;;;;;;;15.82;7.35;;;;;;;10.63;67.90;99724.94;4374023;32;33967;-87
2021/10/13 05:02:05;;;;;;;16.45;7.28;;;;;;;10.66;67.85;99732.72;4378777;32;32824;-87
2021/10/13 05:04:33;;;;;;;13.18;7.55;;;;;;;10.92;66.95;99739.44;4359310;32;34403;-87
2021/10/13 05:07:01;;;;;;;15.52;8.18;;;;;;;10.60;67.76;99740.94;4393892;32;33397;-87
2021/10/13 05:09:30;;;;;;;14.93;7.40;;;;;;;10.99;66.72;99740.91;4395376;32;32805;-87
2021/10/13 05:11:57;;;;;;;12.32;8.32;;;;;;;10.87;67.36;99749.37;4373023;32;32597;-87
2021/10/13 05:14:25;;;;;;;12.95;8.00;;;;;;;11.23;66.04;99747.69;4387309;32;32409;-87
2021/10/13 05:16:53;;;;;;;14.75;8.43;;;;;;;11.12;66.29;99751.78;4382410;32;34589;-87
2021/10/13 05:19:20;;;;;;;12.98;8.00;;;;;;;11.21;66.17;99753.97;4368033;32;32581;-84
2021/10/13 05:21:48;;;;;;;13.65;8.05;;;;;;;11.39;65.66;99758.38;4383940;32;33920;-85
2021/10/13 05:24:16;;;;;;;12.00;7.85;;;;;;;11.05;66.89;99763.53;4382354;32;34840;-85
2021/10/13 05:26:44;;;;;;;17.77;8.30;;;;;;;11.13;66.61;99764.03;4368543;32;32939;-85
2021/10/13 05:29:11;;;;;;;14.80;8.05;;;;;;;11.30;66.20;99777.34;4369247;32;32947;-85
2021/10/13 05:31:39;;;;;;;12.82;7.97;;;;;;;11.46;65.61;99772.16;4379385;32;33866;-85
2021/10/13 05:34:07;;;;;;;12.52;7.55;;;;;;;11.23;66.44;99786.47;4381569;32;34527;-85
2021/10/13 05:36:34;;;;;;;12.18;7.20;;;;;;;11.21;66.21;99793.63;4389092;32;33605;-84
2021/10/13 05:39:02;;;;;;;13.68;8.35;;;;;;;11.48;65.48;99781.72;4382223;32;33268;-85
2021/10/13 05:41:30;;;;;;;12.18;7.60;;;;;;;11.49;65.41;99794.03;4382717;32;32643;-85
2021/10/13 05:43:57;;;;;;;16.98;8.48;;;;;;;11.47;65.70;99801.19;4355434;32;33275;-85
2021/10/13 05:46:25;;;;;;;11.38;7.75;;;;;;;11.63;65.08;99798.69;4372449;32;33051;-85
2021/10/13 05:48:53;;;;;;;18.20;7.53;;;;;;;11.38;66.05;99795.47;4375588;32;33397;-85
2021/10/13 05:51:20;;;;;;;13.05;7.45;;;;;;;11.41;66.17;99804.13;4364778;32;33467;-85
2021/10/13 05:53:48;;;;;;;15.20;8.00;;;;;;;11.51;65.93;99808.03;4398034;32;34815;-85
2021/10/13 05:56:15;;;;;;;12.02;7.07;;;;;;;11.70;65.29;99808.00;4367792;32;32640;-84
2021/10/13 05:58:43;;;;;;;11.93;8.05;;;;;;;11.62;65.64;99825.19;4378042;32;32594;-84
2021/10/13 06:01:11;;;;;;;12.45;6.70;;;;;;;11.81;65.22;99831.28;4380036;32;33831;-85
2021/10/13 06:03:39;;;;;;;11.90;7.20;;;;;;;11.18;67.64;99833.41;4385413;32;33021;-85
2021/10/13 06:06:06;;;;;;;10.88;6.85;;;;;;;10.93;68.68;99826.59;4392250;32;33216;-84
2021/10/13 06:08:34;;;;;;;11.70;7.25;;;;;;;10.99;68.87;99836.88;4402549;32;33537;-85
2021/10/13 06:11:02;;;;;;;12.90;6.25;;;;;;;11.34;67.22;99837.03;4371186;32;32731;-85
2021/10/13 06:13:29;;;;;;;15.48;6.20;;;;;;;11.47;66.78;99834.69;4404549;32;33794;-84
2021/10/13 06:15:57;;;;;;;7.07;5.05;;;;;;;11.42;67.10;99842.84;4385830;32;33147;-85
2021/10/13 06:18:25;;;;;;;8.00;5.43;;;;;;;11.44;67.29;99835.72;4385122;32;32808;-84
2021/10/13 06:20:52;;;;;;;8.10;4.47;;;;;;;11.67;66.71;99837.25;4391835;32;33099;-84
2021/10/13 06:23:20;;;;;;;5.40;3.90;;;;;;;11.58;66.97;99840.31;4372786;32;32703;-84
2021/10/13 06:25:48;;;;;;;6.22;3.62;;;;;;;11.59;67.17;99855.28;4391884;32;33327;-84
2021/10/13 06:28:15;;;;;;;5.00;3.47;;;;;;;11.51;67.59;99852.12;4383450;32;33145;-84
2021/10/13 06:30:43;;;;;;;4.05;3.00;;;;;;;11.69;66.96;99850.41;4393903;32;32922;-84
2021/10/13 06:33:11;;;;;;;3.37;3.03;;;;;;;11.68;67.11;99851.31;4385634;32;35205;-84
2021/10/13 06:35:39;;;;;;;4.00;3.10;;;;;;;11.36;68.45;99863.44;4400816;32;33017;-84
2021/10/13 06:38:07;;;;;;;3.55;2.92;;;;;;;11.58;67.45;99865.91;4385733;32;31754;-84
2021/10/13 06:40:35;;;;;;;6.45;3.33;;;;;;;11.49;67.44;99862.78;4377558;32;35041;-84
2021/10/13 06:43:04;;;;;;;4.00;3.08;;;;;;;11.65;67.12;99873.50;4392484;32;34215;-84
2021/10/13 06:45:35;;;;;;;5.15;2.80;;;;;;;11.55;67.49;99872.22;4406965;32;34105;-84
2021/10/13 06:48:04;;;;;;;3.62;3.05;;;;;;;11.33;68.32;99879.41;4408333;32;33839;-84
2021/10/13 06:50:34;;;;;;;5.07;2.87;;;;;;;11.31;67.20;99874.22;4380192;32;33472;-84
2021/10/13 06:53:02;;;;;;;3.72;2.58;;;;;;;11.17;67.84;99882.75;4380232;32;33044;-84
2021/10/13 06:55:31;;;;;;;3.40;2.80;;;;;;;10.94;67.41;99883.78;4378006;32;32954;-84
2021/10/13 06:57:58;;;;;;;2.70;2.30;;;;;;;11.03;67.22;99888.66;4395421;32;33454;-84
2021/10/13 07:00:26;;;;;;;2.72;2.37;;;;;;;10.94;66.95;99883.78;4365730;32;33453;-85
2021/10/13 07:02:54;;;;;;;4.20;2.00;;;;;;;11.03;66.79;99878.09;4360362;32;32512;-85
2021/10/13 07:05:22;;;;;;;3.22;2.08;;;;;;;11.06;66.55;99884.16;4388165;32;34517;-85
2021/10/13 07:07:50;;;;;;;6.60;2.22;;;;;;;10.79;66.90;99886.22;4371643;32;34243;-84
2021/10/13 07:10:18;;;;;;;3.87;1.65;;;;;;;10.91;66.07;99890.97;4383739;32;33504;-84
2021/10/13 07:12:47;;;;;;;2.55;1.45;;;;;;;11.06;65.63;99890.28;4397875;32;34261;-84
2021/10/13 07:15:15;;;;;;;4.37;1.73;;;;;;;11.13;65.25;99890.88;4360747;32;33830;-84
2021/10/13 07:17:43;;;;;;;7.20;2.00;;;;;;;10.92;66.57;99892.69;4377141;32;33515;-84
2021/10/13 07:20:11;;;;;;;3.72;1.80;;;;;;;10.77;67.01;99899.47;4354557;32;32776;-84
2021/10/13 07:22:39;;;;;;;1.90;1.35;;;;;;;10.68;67.18;99897.22;4381912;32;33392;-84
2021/10/13 07:25:08;;;;;;;2.60;1.87;;;;;;;10.77;66.30;99912.69;4386109;32;34491;-85
2021/10/13 07:27:37;;;;;;;2.75;1.92;;;;;;;10.75;66.16;99914.56;4360022;32;32651;-84
2021/10/13 07:30:06;;;;;;;2.42;2.22;;;;;;;10.90;65.92;99916.53;4377389;32;32990;-84
2021/10/13 07:32:35;;;;;;;3.50;2.30;;;;;;;10.86;66.26;99922.88;4374410;32;34049;-85
2021/10/13 07:35:19;;;;;;;3.80;2.05;;;;;;;11.22;64.22;99932.78;4396161;32;33118;-86
2021/10/13 07:37:48;;;;;;;2.85;2.20;;;;;;;11.10;65.11;99928.00;4359862;32;34121;-86
2021/10/13 07:40:16;;;;;;;13.60;9.10;;;;;;;11.17;65.47;99930.34;4371344;32;32819;-85
2021/10/13 07:42:44;;;;;;;7.70;4.53;;;;;;;10.94;64.49;99939.25;4349401;32;32809;-85
2021/10/13 07:45:12;;;;;;;6.32;4.97;;;;;;;10.98;64.80;99942.63;4376958;32;33638;-85
2021/10/13 07:47:39;;;;;;;4.90;1.87;;;;;;;11.35;63.64;99939.22;4364560;32;32685;-86
2021/10/13 07:50:08;;;;;;;3.55;1.90;;;;;;;11.67;60.85;99931.59;4379161;32;32383;-85
2021/10/13 07:52:36;;;;;;;4.12;1.40;;;;;;;11.21;62.38;99937.19;4351481;32;33890;-85
2021/10/13 07:55:05;;;;;;;4.55;2.25;;;;;;;11.15;63.11;99949.81;4392266;32;33678;-85
2021/10/13 07:57:33;;;;;;;5.35;3.10;;;;;;;11.28;62.86;99949.22;4390311;32;33076;-85
2021/10/13 08:00:00;;;;;;;2.83;2.00;;;;;;;11.28;63.64;99954.50;4389004;32;32716;-85
2021/10/13 08:02:30;;;;;;;5.03;1.67;;;;;;;11.27;62.50;99959.84;4383618;32;34531;-85
2021/10/13 08:04:58;;;;;;;1.77;1.20;;;;;;;11.33;61.17;99956.94;4399861;32;33511;-86
2021/10/13 08:07:26;;;;;;;5.40;1.87;;;;;;;10.98;63.56;99963.75;4400556;32;33736;-86
2021/10/13 08:09:53;;;;;;;2.62;1.60;;;;;;;11.34;62.01;99953.34;4398352;32;34252;-85
2021/10/13 08:12:21;;;;;;;3.60;1.35;;;;;;;11.27;62.01;99957.22;4401838;32;33226;-83
2021/10/13 08:14:48;;;;;;;2.47;1.42;;;;;;;11.16;61.15;99956.84;4393666;32;34142;-82
2021/10/13 08:17:16;;;;;;;1.87;1.40;;;;;;;11.02;62.35;99963.56;4392768;32;32083;-85
2021/10/13 08:19:44;;;;;;;3.33;1.48;;;;;;;11.14;62.57;99956.03;4405979;32;33170;-85
2021/10/13 08:22:11;;;;;;;3.30;2.15;;;;;;;11.31;62.07;99945.59;4394504;32;34690;-86
2021/10/13 08:24:39;;;;;;;3.42;1.62;;;;;;;11.29;61.25;99955.34;4394596;32;34628;-86
2021/10/13 08:27:07;;;;;;;1.77;1.23;;;;;;;11.40;60.88;99957.53;4407187;32;33329;-85
2021/10/13 08:29:34;;;;;;;3.30;0.95;;;;;;;11.46;60.20;99954.63;4418165;32;34560;-85
2021/10/13 08:32:02;;;;;;;3.40;1.27;;;;;;;11.35;59.83;99948.97;4400081;32;34068;-85
2021/10/13 08:34:30;;;;;;;0.95;0.82;;;;;;;11.82;58.12;99952.12;4407030;32;33635;-85
2021/10/13 08:36:58;;;;;;;1.33;1.02;;;;;;;12.02;56.47;99957.34;4401456;32;97416;-85
2021/10/13 08:39:25;;;;;;;3.08;0.80;;;;;;;12.00;55.55;99953.88;4391814;32;33599;-85
2021/10/13 08:41:53;;;;;;;0.77;0.75;;;;;;;11.72;57.19;99959.56;4391472;32;33372;-85
2021/10/13 08:44:20;;;;;;;1.23;1.00;;;;;;;11.96;56.84;99960.28;4400829;32;33172;-85
2021/10/13 08:46:48;;;;;;;1.92;1.02;;;;;;;11.78;56.88;99961.09;4419576;32;33461;-85
2021/10/13 08:49:16;;;;;;;0.98;0.73;;;;;;;11.79;56.53;99965.44;4394635;32;33793;-85
2021/10/13 08:51:52;;;;;;;3.78;1.00;;;;;;;12.10;55.46;99958.75;4394280;32;33012;-85
2021/10/13 08:54:20;;;;;;;1.10;0.85;;;;;;;12.07;54.29;99965.06;4406978;32;33308;-85
2021/10/13 08:56:48;;;;;;;1.02;0.70;;;;;;;12.51;51.64;99944.38;4406485;32;33190;-85
2021/10/13 08:59:38;;;;;;;1.67;0.57;;;;;;;12.45;50.78;99939.37;4381622;32;32703;-85
2021/10/13 09:02:07;;;;;;;1.40;0.55;;;;;;;12.73;50.36;99938.00;4418987;32;35196;-86
2021/10/13 09:05:09;;;;;;;2.45;0.77;;;;;;;12.77;49.22;99939.53;4417707;32;32981;-85
2021/10/13 09:07:39;;;;;;;4.60;0.90;;;;;;;12.79;50.70;99943.00;4406249;32;33291;-86
2021/10/13 09:10:08;;;;;;;2.08;0.50;;;;;;;12.74;46.89;99945.03;4406498;32;34506;-86
2021/10/13 09:12:38;;;;;;;0.85;0.35;;;;;;;12.37;48.83;99946.84;4381713;32;33897;-86
2021/10/13 09:15:08;;;;;;;1.65;0.37;;;;;;;12.53;48.67;99946.94;4406639;32;34229;-86
2021/10/13 09:18:14;;;;;;;2.22;0.62;;;;;;;12.81;48.76;99957.88;4406526;32;33636;-86
2021/10/13 09:20:42;;;;;;;0.57;0.40;;;;;;;13.07;46.34;99951.25;4405177;32;33247;-86
2021/10/13 09:23:21;;;;;;;0.85;0.50;;;;;;;13.14;47.30;99949.13;4392597;32;33720;-85
2021/10/13 09:26:04;;;;;;;1.02;0.60;;;;;;;13.45;44.93;99944.91;4404374;32;33544;-85
2021/10/13 09:28:35;;;;;;;0.62;0.50;;;;;;;12.99;47.13;99949.94;4406219;32;32746;-85
2021/10/13 09:31:15;;;;;;;0.75;0.57;;;;;;;13.13;46.30;99941.25;4420013;32;34144;-85
2021/10/13 09:33:58;;;;;;;1.75;1.12;;;;;;;13.12;46.61;99950.16;4404873;32;34688;-86
2021/10/13 09:36:35;;;;;;;0.98;0.57;;;;;;;13.10;47.20;99944.06;4377513;32;33257;-87
2021/10/13 09:39:17;;;;;;;2.00;0.62;;;;;;;13.60;46.15;99943.25;4390631;32;33294;-85
2021/10/13 09:42:03;;;;;;;4.90;0.73;;;;;;;13.45;45.47;99953.72;4365576;32;33063;-85
2021/10/13 09:44:42;;;;;;;1.42;1.05;;;;;;;13.11;46.66;99959.06;4378284;32;34430;-86
2021/10/13 09:47:12;;;;;;;1.23;0.60;;;;;;;13.28;46.86;99964.34;4379793;32;33885;-86
2021/10/13 09:49:45;;;;;;;2.12;1.10;;;;;;;13.65;46.21;99967.72;4393311;32;33314;-86
2021/10/13 09:52:18;;;;;;;2.03;1.15;;;;;;;13.16;47.72;99973.78;4380838;32;33819;-86
2021/10/13 09:54:48;;;;;;;2.25;1.27;;;;;;;13.66;46.57;99961.47;4380680;32;33528;-86
2021/10/13 09:57:18;;;;;;;1.90;1.25;;;;;;;13.62;46.21;99954.63;4393040;32;33794;-85
2021/10/13 10:00:11;;;;;;;1.95;1.10;;;;;;;13.88;46.13;99959.38;4397271;32;32934;-85
2021/10/13 10:02:45;;;;;;;1.17;1.05;;;;;;;13.76;44.92;99954.72;4405230;32;34137;-85
2021/10/13 10:05:29;;;;;;;1.60;0.95;;;;;;;13.52;45.45;99965.72;4396530;32;34333;-85
2021/10/13 10:08:08;;;;;;;1.48;1.12;;;;;;;13.55;45.64;99973.53;4407789;32;32488;-86
2021/10/13 10:11:00;;;;;;;4.35;1.23;;;;;;;13.61;44.92;99984.75;4407905;32;32156;-86
2021/10/13 10:13:41;;;;;;;1.85;1.10;;;;;;;13.55;45.39;99972.66;4395442;32;32938;-86
2021/10/13 10:16:11;;;;;;;2.10;1.20;;;;;;;13.20;47.89;99985.09;4376014;32;33481;-85
2021/10/13 10:18:41;;;;;;;1.20;0.82;;;;;;;13.38;44.93;99962.06;4368408;32;34082;-86
2021/10/13 10:21:19;;;;;;;1.58;0.98;;;;;;;13.12;46.04;99976.66;4381061;32;33310;-86
2021/10/13 10:23:48;;;;;;;2.78;1.20;;;;;;;13.21;44.87;99970.91;4383281;32;33495;-85
2021/10/13 10:26:25;;;;;;;1.35;0.90;;;;;;;13.06;46.36;99978.69;4390295;32;33593;-86
2021/10/13 10:28:59;;;;;;;0.90;0.90;;;;;;;12.82;47.85;99982.59;4397753;32;32603;-86
2021/10/13 10:31:29;;;;;;;0.70;0.70;;;;;;;13.19;45.17;99983.34;4398987;32;33010;-86
2021/10/13 10:34:03;;;;;;;1.77;0.95;;;;;;;13.13;44.54;99983.69;4402923;32;34566;-86
2021/10/13 10:36:34;;;;;;;1.83;1.02;;;;;;;13.24;45.29;99976.06;4397304;32;33711;-86
2021/10/13 10:39:07;;;;;;;1.58;0.85;;;;;;;13.14;45.79;99980.09;4386734;32;33365;-86
2021/10/13 10:41:41;;;;;;;2.87;1.20;;;;;;;13.47;44.58;99994.28;4398939;32;34200;-86
2021/10/13 10:44:29;;;;;;;1.08;0.98;;;;;;;13.54;44.46;99984.22;4403684;32;32800;-86
2021/10/13 10:47:04;;;;;;;3.75;1.10;;;;;;;13.57;44.32;99974.28;4403726;32;33068;-86
2021/10/13 10:49:51;;;;;;;1.67;0.80;;;;;;;13.51;44.96;99982.56;4390379;32;33268;-86
2021/10/13 10:52:20;;;;;;;1.40;0.80;;;;;;;13.57;43.37;99966.31;4399610;32;31876;-86
2021/10/13 10:54:58;;;;;;;1.25;0.70;;;;;;;13.68;42.51;99959.62;4410187;32;34540;-86
2021/10/13 10:57:36;;;;;;;2.78;1.65;;;;;;;13.54;43.01;99965.66;4376039;32;34079;-86
2021/10/13 11:00:08;;;;;;;1.23;1.02;;;;;;;13.51;43.17;99969.31;4399317;32;32991;-86
2021/10/13 11:02:35;;;;;;;4.40;0.77;;;;;;;13.63;43.04;99972.28;4374984;32;32635;-86
2021/10/13 11:05:08;;;;;;;1.02;0.93;;;;;;;13.52;43.85;99965.72;4375481;32;31843;-86
2021/10/13 11:07:38;;;;;;;1.60;0.75;;;;;;;13.86;42.93;99957.72;4375501;32;34303;-86
2021/10/13 11:10:10;;;;;;;3.55;1.00;;;;;;;13.83;43.42;99962.28;4363091;32;33322;-86
2021/10/13 11:12:59;;;;;;;1.45;0.62;;;;;;;13.54;44.18;99963.00;4381565;32;33178;-86
2021/10/13 11:15:28;;;;;;;5.43;1.00;;;;;;;13.85;41.61;99959.53;4388272;32;34190;-86
2021/10/13 11:17:57;;;;;;;1.08;0.75;;;;;;;13.35;44.97;99963.13;4370722;32;33499;-86
2021/10/13 11:20:25;;;;;;;1.62;0.95;;;;;;;13.69;42.56;99961.31;4374476;32;33551;-86
2021/10/13 11:23:04;;;;;;;1.70;0.73;;;;;;;13.51;42.94;99964.00;4373663;32;33184;-86
2021/10/13 11:25:32;;;;;;;1.77;0.95;;;;;;;13.44;41.26;99969.72;4375655;32;33599;-86
2021/10/13 11:28:05;;;;;;;1.50;0.75;;;;;;;12.72;44.70;99978.66;4375432;32;33890;-86
2021/10/13 11:30:40;;;;;;;0.40;0.40;;;;;;;13.18;44.76;99982.50;4370083;32;32810;-86
2021/10/13 11:33:10;;;;;;;0.82;0.60;;;;;;;12.98;42.64;99970.28;4374368;32;32277;-85
2021/10/13 11:35:39;;;;;;;0.80;0.60;;;;;;;13.50;40.20;99972.91;4394163;32;33762;-85
2021/10/13 11:38:10;;;;;;;0.55;0.55;;;;;;;13.41;40.15;99970.75;4361298;32;32687;-86
2021/10/13 11:40:38;;;;;;;0.77;0.60;;;;;;;13.20;40.71;99963.87;4373702;32;32429;-86
2021/10/13 11:43:12;;;;;;;4.57;0.40;;;;;;;13.21;40.36;99965.59;4388339;32;33010;-85
2021/10/13 11:45:49;;;;;;;0.30;0.30;;;;;;;13.32;41.16;99973.88;4394497;32;33837;-86
2021/10/13 11:48:25;;;;;;;1.12;0.40;;;;;;;13.57;42.00;99974.28;4385146;32;33772;-85
2021/10/13 11:50:54;;;;;;;0.80;0.52;;;;;;;13.88;39.81;99969.13;4383011;32;33798;-85